Time;durP1;ratioP1;P1;durP2;ratioP2;P2;SDS_P1;SDS_P2;PMS_P1;PMS_P2;Temp;Humidity;BMP_temperature;BMP_pressure;BME280_temperature;BME280_humidity;BME280_pressure;Samples;Min_cycle;Max_cycle;Signal;HPM_P1;HPM_P2
2023/05/21 00:02:18;;;;;;;3.05;2.10;;;;;;;;;;4994089;28;94562;-81
2023/05/21 00:04:45;;;;;;;5.68;2.38;;;;;;;;;;4993530;28;94673;-81
2023/05/21 00:07:13;;;;;;;2.72;2.17;;;;;;;;;;4997099;28;91607;-81
2023/05/21 00:09:40;;;;;;;4.55;2.67;;;;;;;;;;4996980;28;92141;-81
2023/05/21 00:12:07;;;;;;;2.80;2.17;;;;;;;;;;5000481;28;92110;-81
2023/05/21 00:14:34;;;;;;;3.25;2.63;;;;;;;;;;4998377;28;92127;-81
2023/05/21 00:17:01;;;;;;;2.60;2.40;;;;;;;;;;5002464;28;91942;-81
2023/05/21 00:19:27;;;;;;;6.03;2.10;;;;;;;;;;5002833;28;92113;-81
2023/05/21 00:21:54;;;;;;;7.07;2.33;;;;;;;;;;5002651;28;92024;-81
2023/05/21 00:24:21;;;;;;;7.38;2.40;;;;;;;;;;5004868;28;92166;-81
2023/05/21 00:26:50;;;;;;;13.15;2.50;;;;;;;;;;5018859;28;92338;-81
2023/05/21 00:29:17;;;;;;;4.70;2.58;;;;;;;;;;5006373;28;94094;-81
2023/05/21 00:31:44;;;;;;;3.90;2.40;;;;;;;;;;5006182;28;91825;-81
2023/05/21 00:34:12;;;;;;;3.97;2.50;;;;;;;;;;5003826;28;92729;-81
2023/05/21 00:36:39;;;;;;;3.25;2.10;;;;;;;;;;5005170;28;93036;-81
2023/05/21 00:39:05;;;;;;;3.78;2.58;;;;;;;;;;5004616;28;92832;-81
2023/05/21 00:41:34;;;;;;;4.35;2.40;;;;;;;;;;5018388;28;91812;-82
2023/05/21 00:44:02;;;;;;;3.30;2.67;;;;;;;;;;5032270;28;91628;-82
2023/05/21 00:46:28;;;;;;;4.55;2.72;;;;;;;;;;5014033;28;91837;-81
2023/05/21 00:48:56;;;;;;;6.70;2.33;;;;;;;;;;5011925;28;94063;-81
2023/05/21 00:51:23;;;;;;;3.35;3.05;;;;;;;;;;5013421;28;91629;-82
2023/05/21 00:53:51;;;;;;;3.20;2.67;;;;;;;;;;5004522;28;94479;-81
2023/05/21 00:56:20;;;;;;;2.83;2.47;;;;;;;;;;5004380;28;96276;-82
2023/05/21 00:58:47;;;;;;;3.67;2.53;;;;;;;;;;4992219;28;92030;-82
2023/05/21 01:01:14;;;;;;;5.57;3.30;;;;;;;;;;5006223;28;93890;-81
2023/05/21 01:03:41;;;;;;;6.10;2.95;;;;;;;;;;5008566;28;91968;-81
2023/05/21 01:06:08;;;;;;;3.72;2.80;;;;;;;;;;4993350;28;92007;-81
2023/05/21 01:08:36;;;;;;;5.15;2.65;;;;;;;;;;4997793;28;92338;-81
2023/05/21 01:11:03;;;;;;;4.78;2.65;;;;;;;;;;5006497;28;92926;-82
2023/05/21 01:13:31;;;;;;;11.48;2.88;;;;;;;;;;5009607;28;94237;-82
2023/05/21 01:15:58;;;;;;;2.85;2.60;;;;;;;;;;5010815;28;91870;-82
2023/05/21 01:18:25;;;;;;;3.75;3.13;;;;;;;;;;4994014;28;91423;-82
2023/05/21 01:20:52;;;;;;;4.47;3.35;;;;;;;;;;4995105;28;94403;-82
2023/05/21 01:23:19;;;;;;;6.60;3.15;;;;;;;;;;5011789;28;91990;-82
2023/05/21 01:25:46;;;;;;;4.57;2.90;;;;;;;;;;5012421;28;91688;-82
2023/05/21 01:28:12;;;;;;;6.07;3.00;;;;;;;;;;5012912;28;91932;-82
2023/05/21 01:30:40;;;;;;;5.57;3.00;;;;;;;;;;5013250;28;92711;-82
2023/05/21 01:33:11;;;;;;;3.28;2.95;;;;;;;;;;5015753;28;92268;-82
2023/05/21 01:35:41;;;;;;;4.47;3.55;;;;;;;;;;5012457;28;93096;-82
2023/05/21 01:38:30;;;;;;;3.25;3.00;;;;;;;;;;5023610;28;92139;-82
2023/05/21 01:41:06;;;;;;;8.25;2.97;;;;;;;;;;5009076;28;94077;-81
2023/05/21 01:43:35;;;;;;;4.75;3.25;;;;;;;;;;4990381;28;92330;-81
2023/05/21 01:46:02;;;;;;;7.00;3.72;;;;;;;;;;4993590;28;91972;-81
2023/05/21 01:48:32;;;;;;;4.00;3.63;;;;;;;;;;5006041;28;94561;-81
2023/05/21 01:51:00;;;;;;;4.88;3.35;;;;;;;;;;5005625;28;94274;-82
2023/05/21 01:53:27;;;;;;;6.95;3.28;;;;;;;;;;5007966;28;92320;-81
2023/05/21 01:55:54;;;;;;;5.35;3.40;;;;;;;;;;4989854;28;92587;-82
2023/05/21 01:58:21;;;;;;;5.18;3.30;;;;;;;;;;5003810;28;91616;-81
2023/05/21 02:00:49;;;;;;;3.97;3.58;;;;;;;;;;4998422;28;92214;-82
2023/05/21 02:03:17;;;;;;;3.50;3.20;;;;;;;;;;5011020;28;92057;-81
2023/05/21 02:05:43;;;;;;;4.68;3.80;;;;;;;;;;5016852;28;92252;-81
2023/05/21 02:08:11;;;;;;;6.70;3.45;;;;;;;;;;4999999;28;91964;-81
2023/05/21 02:10:38;;;;;;;4.43;4.03;;;;;;;;;;5002568;28;92165;-81
2023/05/21 02:13:04;;;;;;;8.27;3.88;;;;;;;;;;4997409;28;92182;-81
2023/05/21 02:15:33;;;;;;;4.53;3.67;;;;;;;;;;4991471;28;93055;-81
2023/05/21 02:18:01;;;;;;;4.43;3.40;;;;;;;;;;5001232;28;94708;-81
2023/05/21 02:20:27;;;;;;;5.28;3.80;;;;;;;;;;4988565;28;92053;-80
2023/05/21 02:22:54;;;;;;;4.32;3.65;;;;;;;;;;4980385;28;94631;-81
2023/05/21 02:25:20;;;;;;;8.57;4.00;;;;;;;;;;4994136;28;92082;-81
2023/05/21 02:27:52;;;;;;;6.88;3.70;;;;;;;;;;5001004;28;92059;-81
2023/05/21 02:30:19;;;;;;;6.10;4.03;;;;;;;;;;5004976;28;92173;-81
2023/05/21 02:32:47;;;;;;;4.88;4.10;;;;;;;;;;5014558;28;92000;-81
2023/05/21 02:35:14;;;;;;;4.43;3.85;;;;;;;;;;5019149;28;92101;-81
2023/05/21 02:37:42;;;;;;;8.07;4.00;;;;;;;;;;5002636;28;91990;-81
2023/05/21 02:40:10;;;;;;;4.32;3.92;;;;;;;;;;5021638;28;91720;-84
2023/05/21 02:42:38;;;;;;;4.97;4.05;;;;;;;;;;5004170;28;95043;-82
2023/05/21 02:45:07;;;;;;;7.43;3.75;;;;;;;;;;4997719;28;91865;-81
2023/05/21 02:47:34;;;;;;;8.32;4.10;;;;;;;;;;5011434;28;93340;-82
2023/05/21 02:50:01;;;;;;;5.55;3.88;;;;;;;;;;5006210;28;94568;-81
2023/05/21 02:52:29;;;;;;;5.90;4.13;;;;;;;;;;5004005;28;92171;-82
2023/05/21 02:54:55;;;;;;;8.63;4.15;;;;;;;;;;4988226;28;95138;-81
2023/05/21 02:57:22;;;;;;;4.85;4.32;;;;;;;;;;5002813;28;91724;-81
2023/05/21 02:59:50;;;;;;;6.32;4.25;;;;;;;;;;5016495;28;92044;-82
2023/05/21 03:02:16;;;;;;;4.32;3.90;;;;;;;;;;5002023;28;94725;-82
2023/05/21 03:04:46;;;;;;;5.93;4.35;;;;;;;;;;5002205;28;91984;-82
2023/05/21 03:07:14;;;;;;;8.93;4.03;;;;;;;;;;5007367;28;93975;-82
2023/05/21 03:09:43;;;;;;;5.90;3.53;;;;;;;;;;5009469;28;94706;-82
2023/05/21 03:12:10;;;;;;;5.18;4.50;;;;;;;;;;4991211;28;91482;-82
2023/05/21 03:14:36;;;;;;;5.18;4.03;;;;;;;;;;4999238;28;91798;-81
2023/05/21 03:17:04;;;;;;;4.35;3.95;;;;;;;;;;4983491;28;92957;-81
2023/05/21 03:19:35;;;;;;;7.88;4.70;;;;;;;;;;4996887;28;92108;-81
2023/05/21 03:22:04;;;;;;;5.57;4.47;;;;;;;;;;4990982;28;94076;-81
2023/05/21 03:24:35;;;;;;;14.63;4.10;;;;;;;;;;5001032;28;91851;-82
2023/05/21 03:27:05;;;;;;;5.70;4.07;;;;;;;;;;5008362;28;93781;-81
2023/05/21 03:29:32;;;;;;;14.63;4.50;;;;;;;;;;5027164;28;92275;-81
2023/05/21 03:32:00;;;;;;;6.50;4.00;;;;;;;;;;5009622;28;92263;-82
2023/05/21 03:34:29;;;;;;;5.55;3.72;;;;;;;;;;5002664;28;93695;-81
2023/05/21 03:36:55;;;;;;;4.65;4.18;;;;;;;;;;4984563;28;93862;-82
2023/05/21 03:39:22;;;;;;;4.30;3.67;;;;;;;;;;5023155;28;91994;-82
2023/05/21 03:41:49;;;;;;;6.05;4.00;;;;;;;;;;5011573;28;91810;-81
2023/05/21 03:44:25;;;;;;;9.30;3.80;;;;;;;;;;5006765;28;94395;-81
2023/05/21 03:46:58;;;;;;;5.20;3.85;;;;;;;;;;4998802;28;94517;-81
2023/05/21 03:49:31;;;;;;;4.47;3.55;;;;;;;;;;4997348;28;93303;-81
2023/05/21 03:51:58;;;;;;;6.60;4.40;;;;;;;;;;5011998;28;92137;-82
2023/05/21 03:54:25;;;;;;;6.63;4.18;;;;;;;;;;4997876;28;94127;-82
2023/05/21 03:56:56;;;;;;;5.85;4.05;;;;;;;;;;5001685;28;94334;-81
2023/05/21 03:59:23;;;;;;;8.07;4.10;;;;;;;;;;5006030;28;92295;-81
2023/05/21 04:01:50;;;;;;;7.63;4.32;;;;;;;;;;5001600;28;91990;-81
2023/05/21 04:04:17;;;;;;;6.32;4.10;;;;;;;;;;5005043;28;95142;-81
2023/05/21 04:06:43;;;;;;;6.45;3.83;;;;;;;;;;5010929;28;91941;-81
2023/05/21 04:09:11;;;;;;;7.15;4.03;;;;;;;;;;5002830;28;94629;-82
2023/05/21 04:11:38;;;;;;;5.15;4.20;;;;;;;;;;4988663;28;92044;-81
2023/05/21 04:14:05;;;;;;;6.82;3.55;;;;;;;;;;4996912;28;93035;-81
2023/05/21 04:16:33;;;;;;;5.90;4.30;;;;;;;;;;4996460;28;91861;-81
2023/05/21 04:19:00;;;;;;;7.85;4.32;;;;;;;;;;4989478;28;92438;-81
2023/05/21 04:21:28;;;;;;;4.30;3.90;;;;;;;;;;4977392;28;92711;-81
2023/05/21 04:23:56;;;;;;;8.30;4.35;;;;;;;;;;4993590;28;94802;-81
2023/05/21 04:26:41;;;;;;;4.65;3.78;;;;;;;;;;4996844;28;96127;-81
2023/05/21 04:29:08;;;;;;;8.52;3.90;;;;;;;;;;4998113;28;95110;-81
2023/05/21 04:31:35;;;;;;;4.50;3.53;;;;;;;;;;4981656;28;94653;-81
2023/05/21 04:34:03;;;;;;;4.78;4.13;;;;;;;;;;4967028;28;95288;-81
2023/05/21 04:36:30;;;;;;;4.60;3.95;;;;;;;;;;4999337;28;94730;-81
2023/05/21 04:38:56;;;;;;;8.32;4.13;;;;;;;;;;4997452;28;93771;-81
2023/05/21 04:41:23;;;;;;;6.47;4.25;;;;;;;;;;5002791;28;93167;-82
2023/05/21 04:43:53;;;;;;;3.78;3.47;;;;;;;;;;5007248;28;95092;-81
2023/05/21 04:46:25;;;;;;;11.00;4.45;;;;;;;;;;4981909;28;93493;-81
2023/05/21 04:48:53;;;;;;;10.27;4.53;;;;;;;;;;4995070;28;97816;-81
2023/05/21 04:51:23;;;;;;;5.50;4.10;;;;;;;;;;4982649;28;94302;-81
2023/05/21 04:53:50;;;;;;;6.43;4.40;;;;;;;;;;5006917;28;92373;-81
2023/05/21 04:56:17;;;;;;;7.28;4.35;;;;;;;;;;4979373;28;94320;-81
2023/05/21 04:58:46;;;;;;;6.40;3.88;;;;;;;;;;4995007;28;94513;-81
2023/05/21 05:01:17;;;;;;;4.22;3.80;;;;;;;;;;4996859;28;93230;-81
2023/05/21 05:03:44;;;;;;;7.30;3.95;;;;;;;;;;4981824;28;93137;-81
2023/05/21 05:06:11;;;;;;;6.47;3.85;;;;;;;;;;4997949;28;95096;-81
2023/05/21 05:08:38;;;;;;;7.60;4.90;;;;;;;;;;5004251;28;95012;-81
2023/05/21 05:11:04;;;;;;;11.10;4.07;;;;;;;;;;4997932;28;94132;-81
2023/05/21 05:13:31;;;;;;;4.78;3.78;;;;;;;;;;4984150;28;95140;-81
2023/05/21 05:15:59;;;;;;;6.60;4.18;;;;;;;;;;4987512;28;92431;-81
2023/05/21 05:18:26;;;;;;;6.18;4.28;;;;;;;;;;4995044;28;94305;-80
2023/05/21 05:20:53;;;;;;;11.95;5.15;;;;;;;;;;5002680;28;95539;-81
2023/05/21 05:23:19;;;;;;;5.20;4.00;;;;;;;;;;4994212;28;95924;-81
2023/05/21 05:25:46;;;;;;;6.57;4.43;;;;;;;;;;4982425;28;92972;-82
2023/05/21 05:28:13;;;;;;;15.18;4.22;;;;;;;;;;4982246;28;95366;-80
2023/05/21 05:30:39;;;;;;;11.05;4.68;;;;;;;;;;4999155;28;92900;-81
2023/05/21 05:33:20;;;;;;;7.80;4.22;;;;;;;;;;5007346;28;94268;-81
2023/05/21 05:35:47;;;;;;;8.48;4.07;;;;;;;;;;4997984;28;93105;-81
2023/05/21 05:38:14;;;;;;;8.45;4.97;;;;;;;;;;5006475;28;94854;-82
2023/05/21 05:40:40;;;;;;;8.57;4.82;;;;;;;;;;4990824;28;94932;-81
2023/05/21 05:43:07;;;;;;;7.63;4.63;;;;;;;;;;4986005;28;94467;-80
2023/05/21 05:45:34;;;;;;;8.02;4.55;;;;;;;;;;5019288;28;94497;-81
2023/05/21 05:48:05;;;;;;;7.20;4.00;;;;;;;;;;5001496;28;92374;-81
2023/05/21 05:50:31;;;;;;;8.52;4.57;;;;;;;;;;5001522;28;94943;-81
2023/05/21 05:52:58;;;;;;;13.95;4.85;;;;;;;;;;4997585;28;94584;-81
2023/05/21 05:55:25;;;;;;;9.95;5.20;;;;;;;;;;4993886;28;94078;-82
2023/05/21 05:57:53;;;;;;;8.07;4.78;;;;;;;;;;4995440;28;94966;-81
2023/05/21 06:00:20;;;;;;;6.18;4.57;;;;;;;;;;4995329;28;95788;-81
2023/05/21 06:02:48;;;;;;;9.85;4.63;;;;;;;;;;4983068;28;94847;-80
2023/05/21 06:05:15;;;;;;;9.48;4.47;;;;;;;;;;4996140;28;97640;-81
2023/05/21 06:07:42;;;;;;;9.63;4.47;;;;;;;;;;4987079;28;95946;-81
2023/05/21 06:10:09;;;;;;;9.70;4.88;;;;;;;;;;5003588;28;94564;-81
2023/05/21 06:12:36;;;;;;;9.25;4.88;;;;;;;;;;4995248;28;92496;-81
2023/05/21 06:15:06;;;;;;;6.82;4.53;;;;;;;;;;4995682;28;93801;-81
2023/05/21 06:17:33;;;;;;;11.10;5.63;;;;;;;;;;4996354;28;94186;-81
2023/05/21 06:20:00;;;;;;;4.90;4.47;;;;;;;;;;5001963;28;94201;-81
2023/05/21 06:22:27;;;;;;;7.28;4.60;;;;;;;;;;4996406;28;92392;-81
2023/05/21 06:24:54;;;;;;;5.63;4.47;;;;;;;;;;5006199;28;94615;-81
2023/05/21 06:27:21;;;;;;;12.05;5.57;;;;;;;;;;4974923;28;96412;-82
2023/05/21 06:29:48;;;;;;;9.07;5.10;;;;;;;;;;4985018;28;94316;-80
2023/05/21 06:32:15;;;;;;;6.65;4.80;;;;;;;;;;4994388;28;93083;-81
2023/05/21 06:34:41;;;;;;;7.95;5.22;;;;;;;;;;4994348;28;94421;-81
2023/05/21 06:37:08;;;;;;;10.10;4.90;;;;;;;;;;4994505;28;94932;-82
2023/05/21 06:39:35;;;;;;;11.88;5.28;;;;;;;;;;4997401;28;94545;-81
2023/05/21 06:42:02;;;;;;;12.82;5.38;;;;;;;;;;5004067;28;94985;-82
2023/05/21 06:44:50;;;;;;;7.50;5.30;;;;;;;;;;4997947;28;95391;-82
2023/05/21 06:47:39;;;;;;;9.45;5.32;;;;;;;;;;4993949;28;93958;-81
2023/05/21 06:50:06;;;;;;;6.20;4.78;;;;;;;;;;5013262;28;95721;-82
2023/05/21 06:52:33;;;;;;;7.28;5.28;;;;;;;;;;5015526;28;94910;-82
2023/05/21 06:55:01;;;;;;;10.55;5.70;;;;;;;;;;5014414;28;94050;-81
2023/05/21 06:57:37;;;;;;;19.02;5.63;;;;;;;;;;4995262;28;92505;-82
2023/05/21 07:00:05;;;;;;;9.25;5.47;;;;;;;;;;4996374;28;93193;-82
2023/05/21 07:02:33;;;;;;;15.77;5.63;;;;;;;;;;5006628;28;92752;-82
2023/05/21 07:05:00;;;;;;;6.05;4.65;;;;;;;;;;5004256;28;92238;-82
2023/05/21 07:07:26;;;;;;;9.90;5.70;;;;;;;;;;4999780;28;92370;-81
2023/05/21 07:09:53;;;;;;;16.17;6.13;;;;;;;;;;5006307;28;92338;-80
2023/05/21 07:12:20;;;;;;;11.20;5.15;;;;;;;;;;5000304;28;92858;-81
2023/05/21 07:14:49;;;;;;;11.55;5.68;;;;;;;;;;5000499;28;92478;-81
2023/05/21 07:17:16;;;;;;;11.80;5.70;;;;;;;;;;5009031;28;94904;-81
2023/05/21 07:19:42;;;;;;;11.70;6.22;;;;;;;;;;5001806;28;97243;-80
2023/05/21 07:22:11;;;;;;;18.05;5.70;;;;;;;;;;4998140;28;94485;-81
2023/05/21 07:24:37;;;;;;;9.90;5.15;;;;;;;;;;5006722;28;92183;-81
2023/05/21 07:27:05;;;;;;;9.50;5.43;;;;;;;;;;5005594;28;94717;-80
2023/05/21 07:29:50;;;;;;;9.32;4.82;;;;;;;;;;4999054;28;94594;-80
2023/05/21 07:32:17;;;;;;;10.98;5.45;;;;;;;;;;5004550;28;92222;-81
2023/05/21 07:34:44;;;;;;;6.45;5.13;;;;;;;;;;5002874;28;92076;-81
2023/05/21 07:37:12;;;;;;;7.15;5.80;;;;;;;;;;4986710;28;94388;-81
2023/05/21 07:39:39;;;;;;;8.32;4.63;;;;;;;;;;4999416;28;94693;-81
2023/05/21 07:42:06;;;;;;;6.00;5.20;;;;;;;;;;4995014;28;94517;-81
2023/05/21 07:44:33;;;;;;;13.52;5.85;;;;;;;;;;5000754;28;94743;-81
2023/05/21 07:47:00;;;;;;;6.43;5.50;;;;;;;;;;4986435;28;94181;-81
2023/05/21 07:49:27;;;;;;;6.43;4.75;;;;;;;;;;5012910;28;92104;-81
2023/05/21 07:51:53;;;;;;;9.05;5.32;;;;;;;;;;5013907;28;92166;-81
2023/05/21 07:54:21;;;;;;;10.18;5.65;;;;;;;;;;5003725;28;92240;-81
2023/05/21 07:56:47;;;;;;;7.35;5.18;;;;;;;;;;5012868;28;95837;-81
2023/05/21 07:59:30;;;;;;;8.30;4.57;;;;;;;;;;5008533;28;92453;-80
2023/05/21 08:01:57;;;;;;;9.00;5.28;;;;;;;;;;4992855;28;94259;-80
2023/05/21 08:04:23;;;;;;;15.40;5.28;;;;;;;;;;4993524;28;94583;-81
2023/05/21 08:06:50;;;;;;;9.93;5.60;;;;;;;;;;4995318;28;95847;-80
2023/05/21 08:09:18;;;;;;;9.38;5.45;;;;;;;;;;4979322;28;95086;-81
2023/05/21 08:11:45;;;;;;;7.43;5.18;;;;;;;;;;4988631;28;95300;-81
2023/05/21 08:14:11;;;;;;;9.13;5.50;;;;;;;;;;4992170;28;95011;-81
2023/05/21 08:16:38;;;;;;;7.25;5.38;;;;;;;;;;4999751;28;93859;-80
2023/05/21 08:19:05;;;;;;;13.65;5.15;;;;;;;;;;5003012;28;92994;-81
2023/05/21 08:21:32;;;;;;;12.45;5.65;;;;;;;;;;4998887;28;94816;-80
2023/05/21 08:24:01;;;;;;;8.82;5.30;;;;;;;;;;4997294;28;94975;-80
2023/05/21 08:26:28;;;;;;;10.35;5.70;;;;;;;;;;5001144;28;92348;-81
2023/05/21 08:28:55;;;;;;;5.88;5.18;;;;;;;;;;5000840;28;92148;-81
2023/05/21 08:31:21;;;;;;;10.35;6.35;;;;;;;;;;4999763;28;94758;-81
2023/05/21 08:33:50;;;;;;;6.22;5.10;;;;;;;;;;5002949;28;96008;-81
2023/05/21 08:36:21;;;;;;;20.13;5.50;;;;;;;;;;5012350;28;92382;-80
2023/05/21 08:38:54;;;;;;;11.48;5.65;;;;;;;;;;4993277;28;92480;-81
2023/05/21 08:41:25;;;;;;;8.80;4.93;;;;;;;;;;5003295;28;94727;-81
2023/05/21 08:43:59;;;;;;;11.00;5.85;;;;;;;;;;4999872;28;92192;-81
2023/05/21 08:46:27;;;;;;;11.32;5.25;;;;;;;;;;5005536;28;95028;-82
2023/05/21 08:48:54;;;;;;;8.02;5.53;;;;;;;;;;5009387;28;94026;-82
2023/05/21 08:51:23;;;;;;;8.40;5.47;;;;;;;;;;5009892;28;92955;-84
2023/05/21 08:53:51;;;;;;;7.85;5.32;;;;;;;;;;5001357;28;94496;-83
2023/05/21 08:56:20;;;;;;;8.15;5.43;;;;;;;;;;4997373;28;94842;-82
2023/05/21 08:58:52;;;;;;;22.10;5.72;;;;;;;;;;5003313;28;93826;-81
2023/05/21 09:01:21;;;;;;;13.60;6.30;;;;;;;;;;4996562;28;93719;-82
2023/05/21 09:04:00;;;;;;;9.15;5.70;;;;;;;;;;4988813;28;94265;-81
2023/05/21 09:06:47;;;;;;;17.35;5.03;;;;;;;;;;4981726;28;94811;-82
2023/05/21 09:09:27;;;;;;;7.10;5.00;;;;;;;;;;4998012;28;94729;-81
2023/05/21 09:11:54;;;;;;;18.90;8.30;;;;;;;;;;4998973;28;93037;-80
2023/05/21 09:14:22;;;;;;;13.80;6.60;;;;;;;;;;4983333;28;93590;-81
2023/05/21 09:17:13;;;;;;;8.70;4.97;;;;;;;;;;5004812;28;93619;-81
2023/05/21 09:20:00;;;;;;;6.32;4.95;;;;;;;;;;4995248;28;92401;-82
2023/05/21 09:22:27;;;;;;;9.35;4.45;;;;;;;;;;4990139;28;97159;-81
2023/05/21 09:24:54;;;;;;;16.05;5.18;;;;;;;;;;4995005;28;92498;-82
2023/05/21 09:27:21;;;;;;;7.75;5.18;;;;;;;;;;5000244;28;93867;-82
2023/05/21 09:29:47;;;;;;;10.70;5.15;;;;;;;;;;4999443;28;94908;-81
2023/05/21 09:32:16;;;;;;;7.70;5.13;;;;;;;;;;4999223;28;94181;-82
2023/05/21 09:34:43;;;;;;;6.93;5.07;;;;;;;;;;5011639;28;94374;-82
2023/05/21 09:37:09;;;;;;;6.20;5.10;;;;;;;;;;4989394;28;95543;-82
2023/05/21 09:39:53;;;;;;;11.48;5.57;;;;;;;;;;5005688;28;94038;-81
2023/05/21 09:42:20;;;;;;;10.00;5.32;;;;;;;;;;5009011;28;92141;-81
2023/05/21 09:44:47;;;;;;;8.63;5.28;;;;;;;;;;4997834;28;95718;-81
2023/05/21 09:47:18;;;;;;;6.53;5.05;;;;;;;;;;4997122;28;94952;-81
2023/05/21 09:49:44;;;;;;;8.45;5.40;;;;;;;;;;5015512;28;94964;-81
2023/05/21 09:52:11;;;;;;;7.95;4.95;;;;;;;;;;5007282;28;92396;-82
2023/05/21 09:54:37;;;;;;;9.50;5.20;;;;;;;;;;5005254;28;92897;-80
2023/05/21 09:57:04;;;;;;;7.18;5.43;;;;;;;;;;5006382;28;92139;-81
2023/05/21 09:59:35;;;;;;;39.72;6.43;;;;;;;;;;5006190;28;92452;-81
2023/05/21 10:02:02;;;;;;;13.68;5.72;;;;;;;;;;5004818;28;92515;-82
2023/05/21 10:04:30;;;;;;;8.48;4.85;;;;;;;;;;5007713;28;92110;-81
2023/05/21 10:06:58;;;;;;;9.02;4.93;;;;;;;;;;5003477;28;92234;-81
2023/05/21 10:09:26;;;;;;;7.78;4.63;;;;;;;;;;5012113;28;92326;-80
2023/05/21 10:11:52;;;;;;;7.35;5.05;;;;;;;;;;5004511;28;94500;-82
2023/05/21 10:14:19;;;;;;;7.32;5.28;;;;;;;;;;5001873;28;94040;-81
2023/05/21 10:16:46;;;;;;;9.32;5.70;;;;;;;;;;5010023;28;92394;-81
2023/05/21 10:19:14;;;;;;;23.58;6.35;;;;;;;;;;5003901;28;92455;-81
2023/05/21 10:21:41;;;;;;;11.40;6.15;;;;;;;;;;5001894;28;92456;-81
2023/05/21 10:24:08;;;;;;;7.20;5.13;;;;;;;;;;4999277;28;92792;-81
2023/05/21 10:26:37;;;;;;;9.48;5.40;;;;;;;;;;4999256;28;95759;-82
2023/05/21 10:29:03;;;;;;;5.68;4.85;;;;;;;;;;5003960;28;91918;-83
2023/05/21 10:31:30;;;;;;;6.45;4.97;;;;;;;;;;5001978;28;94758;-82
2023/05/21 10:33:57;;;;;;;7.85;5.50;;;;;;;;;;4990810;28;94659;-82
2023/05/21 10:36:24;;;;;;;12.98;6.18;;;;;;;;;;4995510;28;94724;-83
2023/05/21 10:38:51;;;;;;;6.85;5.50;;;;;;;;;;4999371;28;92413;-83
2023/05/21 10:41:18;;;;;;;11.00;5.05;;;;;;;;;;5012741;28;92355;-82
2023/05/21 10:43:45;;;;;;;7.85;4.95;;;;;;;;;;5015167;28;92283;-82
2023/05/21 10:46:15;;;;;;;7.18;5.10;;;;;;;;;;4989766;28;93504;-81
2023/05/21 10:49:00;;;;;;;6.10;5.20;;;;;;;;;;4999986;28;92598;-82
2023/05/21 10:51:28;;;;;;;7.18;4.47;;;;;;;;;;5002599;28;94051;-82
2023/05/21 10:53:57;;;;;;;7.22;4.50;;;;;;;;;;5002121;28;91638;-82
2023/05/21 10:56:30;;;;;;;14.23;6.53;;;;;;;;;;5003191;28;92031;-81
2023/05/21 10:59:02;;;;;;;13.77;5.50;;;;;;;;;;4991174;28;92750;-81
2023/05/21 11:01:32;;;;;;;6.88;5.57;;;;;;;;;;4987297;28;94692;-81
2023/05/21 11:03:59;;;;;;;7.47;5.28;;;;;;;;;;5000305;28;94484;-81
2023/05/21 11:06:26;;;;;;;14.20;5.05;;;;;;;;;;4995956;28;92433;-82
2023/05/21 11:08:53;;;;;;;7.40;5.05;;;;;;;;;;5007322;28;92527;-81
2023/05/21 11:11:43;;;;;;;7.43;5.30;;;;;;;;;;5006436;28;92441;-81
2023/05/21 11:14:48;;;;;;;10.52;5.70;;;;;;;;;;4984484;28;93376;-82
2023/05/21 11:17:34;;;;;;;8.73;5.68;;;;;;;;;;4965638;28;93351;-82
2023/05/21 11:20:07;;;;;;;11.38;6.40;;;;;;;;;;4989466;28;91952;-82
2023/05/21 11:22:35;;;;;;;9.40;5.57;;;;;;;;;;5001598;28;92316;-82
2023/05/21 11:25:01;;;;;;;11.70;6.05;;;;;;;;;;4994267;28;92907;-81
2023/05/21 11:27:32;;;;;;;8.27;6.20;;;;;;;;;;5016055;28;95127;-81
2023/05/21 11:29:59;;;;;;;9.05;6.13;;;;;;;;;;4999725;28;92294;-82
2023/05/21 11:32:26;;;;;;;10.05;6.55;;;;;;;;;;5002848;28;92414;-83
2023/05/21 11:34:52;;;;;;;11.85;6.25;;;;;;;;;;5001041;28;94397;-81
2023/05/21 11:37:22;;;;;;;15.65;6.65;;;;;;;;;;4989744;28;92253;-82
2023/05/21 11:39:49;;;;;;;7.38;5.85;;;;;;;;;;4996376;28;94738;-83
2023/05/21 11:42:32;;;;;;;9.15;6.00;;;;;;;;;;4992958;28;94613;-81
2023/05/21 11:44:59;;;;;;;7.15;5.65;;;;;;;;;;5002550;28;91931;-80
2023/05/21 11:47:27;;;;;;;12.23;6.47;;;;;;;;;;4993447;28;93263;-81
2023/05/21 11:49:55;;;;;;;6.20;5.53;;;;;;;;;;5003175;28;92448;-81
2023/05/21 11:52:22;;;;;;;8.43;6.13;;;;;;;;;;5003684;28;94795;-82
2023/05/21 11:54:54;;;;;;;11.25;6.32;;;;;;;;;;5000503;28;94281;-81
2023/05/21 11:57:21;;;;;;;12.05;6.35;;;;;;;;;;4994118;28;91941;-81
2023/05/21 11:59:50;;;;;;;11.52;6.50;;;;;;;;;;5002507;28;92354;-81
2023/05/21 12:02:20;;;;;;;7.93;6.15;;;;;;;;;;5000867;28;92495;-81
2023/05/21 12:04:48;;;;;;;9.88;6.07;;;;;;;;;;5017333;28;92219;-82
2023/05/21 12:07:15;;;;;;;10.73;6.75;;;;;;;;;;5016084;28;92391;-81
2023/05/21 12:09:46;;;;;;;7.88;6.30;;;;;;;;;;5017665;28;91946;-82
2023/05/21 12:12:15;;;;;;;13.20;6.75;;;;;;;;;;5004989;28;92593;-82
2023/05/21 12:14:46;;;;;;;12.23;6.68;;;;;;;;;;5007466;28;95896;-82
2023/05/21 12:17:13;;;;;;;;;;;;;;;;;;4999088;28;96336;-81
2023/05/21 12:19:39;;;;;;;8.73;6.72;;;;;;;;;;5000956;28;115223;-80
2023/05/21 12:22:06;;;;;;;9.25;6.20;;;;;;;;;;5007213;28;93120;-81
2023/05/21 12:24:33;;;;;;;10.80;7.10;;;;;;;;;;5010798;28;92407;-82
2023/05/21 12:27:01;;;;;;;9.32;6.30;;;;;;;;;;5003515;28;92452;-82
2023/05/21 12:29:29;;;;;;;16.27;7.20;;;;;;;;;;5004292;28;92462;-82
2023/05/21 12:32:00;;;;;;;11.40;6.07;;;;;;;;;;5008555;28;91813;-80
2023/05/21 12:34:35;;;;;;;15.63;8.07;;;;;;;;;;5005374;28;92890;-81
2023/05/21 12:37:07;;;;;;;15.68;6.90;;;;;;;;;;5003571;28;92252;-81
2023/05/21 12:39:38;;;;;;;11.48;6.57;;;;;;;;;;5014789;28;95042;-80
2023/05/21 12:42:05;;;;;;;8.07;6.60;;;;;;;;;;4979924;28;94870;-81
2023/05/21 12:44:31;;;;;;;9.52;6.90;;;;;;;;;;5006350;28;93433;-80
2023/05/21 12:47:01;;;;;;;10.02;6.45;;;;;;;;;;4999084;28;93183;-81
2023/05/21 12:49:36;;;;;;;9.43;6.82;;;;;;;;;;4997105;28;92277;-81
2023/05/21 12:52:06;;;;;;;10.55;6.57;;;;;;;;;;5001411;28;91989;-81
2023/05/21 12:54:34;;;;;;;9.35;7.03;;;;;;;;;;5003549;28;94476;-79
2023/05/21 12:57:06;;;;;;;14.70;7.35;;;;;;;;;;5003805;28;92278;-80
2023/05/21 12:59:43;;;;;;;11.10;7.05;;;;;;;;;;5009512;28;92445;-80
2023/05/21 13:02:12;;;;;;;10.68;6.82;;;;;;;;;;4995252;28;92351;-80
2023/05/21 13:04:39;;;;;;;9.68;7.35;;;;;;;;;;4998642;28;91988;-81
2023/05/21 13:07:05;;;;;;;8.30;7.00;;;;;;;;;;5011630;28;94796;-80
2023/05/21 13:09:32;;;;;;;9.65;7.15;;;;;;;;;;5020102;28;94019;-81
2023/05/21 13:11:59;;;;;;;10.85;6.95;;;;;;;;;;5018107;28;91986;-81
2023/05/21 13:14:25;;;;;;;8.85;7.57;;;;;;;;;;5014770;28;95292;-80
2023/05/21 13:16:51;;;;;;;10.38;7.03;;;;;;;;;;5020879;28;92262;-81
2023/05/21 13:19:18;;;;;;;14.68;7.28;;;;;;;;;;5014181;28;95523;-81
2023/05/21 13:21:44;;;;;;;17.25;7.93;;;;;;;;;;5003774;28;91947;-82
2023/05/21 13:24:11;;;;;;;9.40;7.15;;;;;;;;;;4986676;28;93485;-81
2023/05/21 13:26:38;;;;;;;13.00;7.40;;;;;;;;;;5002817;28;92426;-82
2023/05/21 13:29:04;;;;;;;10.45;7.28;;;;;;;;;;5012092;28;92416;-82
2023/05/21 13:31:31;;;;;;;16.00;6.97;;;;;;;;;;5019494;28;94761;-81
2023/05/21 13:33:58;;;;;;;7.70;6.80;;;;;;;;;;5005204;28;95655;-81
2023/05/21 13:36:24;;;;;;;17.08;6.78;;;;;;;;;;5013205;28;92309;-80
2023/05/21 13:38:50;;;;;;;15.38;7.80;;;;;;;;;;4998878;28;92402;-80
2023/05/21 13:41:17;;;;;;;9.65;7.13;;;;;;;;;;5013049;28;92533;-81
2023/05/21 13:43:43;;;;;;;13.30;7.00;;;;;;;;;;5000354;28;92925;-81
2023/05/21 13:46:10;;;;;;;18.55;7.15;;;;;;;;;;5000577;28;93238;-81
2023/05/21 13:48:36;;;;;;;11.43;6.47;;;;;;;;;;5001328;28;91787;-82
2023/05/21 13:51:09;;;;;;;10.25;6.90;;;;;;;;;;5001206;28;92513;-81
2023/05/21 13:53:36;;;;;;;12.23;6.30;;;;;;;;;;4990307;28;93043;-81
2023/05/21 13:56:03;;;;;;;11.60;6.53;;;;;;;;;;5002115;28;94793;-80
2023/05/21 13:58:33;;;;;;;7.95;5.05;;;;;;;;;;4996395;28;94767;-81
2023/05/21 14:01:01;;;;;;;10.05;6.35;;;;;;;;;;5006530;28;92577;-81
2023/05/21 14:03:28;;;;;;;9.80;5.68;;;;;;;;;;4995493;28;95086;-81
2023/05/21 14:05:56;;;;;;;9.43;6.30;;;;;;;;;;5007156;28;92204;-81
2023/05/21 14:08:23;;;;;;;11.98;6.28;;;;;;;;;;5007402;28;92769;-81
2023/05/21 14:10:50;;;;;;;9.10;5.93;;;;;;;;;;5010295;28;92360;-80
2023/05/21 14:13:17;;;;;;;7.60;5.95;;;;;;;;;;5002359;28;92083;-81
2023/05/21 14:15:45;;;;;;;6.78;5.47;;;;;;;;;;5003441;28;92228;-81
2023/05/21 14:18:12;;;;;;;6.32;5.57;;;;;;;;;;5002335;28;92203;-81
2023/05/21 14:20:38;;;;;;;9.30;5.95;;;;;;;;;;5011894;28;94898;-80
2023/05/21 14:23:05;;;;;;;7.80;5.85;;;;;;;;;;5003998;28;92469;-82
2023/05/21 14:25:31;;;;;;;5.57;4.60;;;;;;;;;;5006246;28;94263;-82
2023/05/21 14:27:58;;;;;;;6.10;4.75;;;;;;;;;;5011403;28;94317;-81
2023/05/21 14:30:25;;;;;;;7.65;5.85;;;;;;;;;;4997459;28;92452;-81
2023/05/21 14:32:51;;;;;;;8.27;5.28;;;;;;;;;;4995373;28;92561;-81
2023/05/21 14:35:18;;;;;;;7.40;5.45;;;;;;;;;;4996304;28;93290;-81
2023/05/21 14:37:44;;;;;;;15.02;4.70;;;;;;;;;;5004082;28;91975;-82
2023/05/21 14:40:12;;;;;;;6.88;4.75;;;;;;;;;;5004758;28;93195;-81
2023/05/21 14:42:38;;;;;;;7.90;5.13;;;;;;;;;;5005342;28;92210;-81
2023/05/21 14:45:05;;;;;;;10.43;5.13;;;;;;;;;;5004355;28;94778;-82
2023/05/21 14:47:44;;;;;;;9.07;5.68;;;;;;;;;;5016148;28;96206;-81
2023/05/21 14:50:10;;;;;;;6.07;3.50;;;;;;;;;;5002110;28;94708;-81